Time;durP1;ratioP1;P1;durP2;ratioP2;P2;SDS_P1;SDS_P2;PMS_P1;PMS_P2;Temp;Humidity;BMP_temperature;BMP_pressure;BME280_temperature;BME280_humidity;BME280_pressure;Samples;Min_cycle;Max_cycle;Signal;HPM_P1;HPM_P2
2022/08/13 00:01:37;;;;;;;6.40;2.97;;;19.40;99.90;;;;;;5029481;28;20393;-73
2022/08/13 00:04:06;;;;;;;5.57;2.70;;;19.40;99.90;;;;;;5037328;28;20040;-73
2022/08/13 00:09:04;;;;;;;4.47;2.75;;;19.30;99.90;;;;;;5058922;28;20056;-72
2022/08/13 00:14:15;;;;;;;5.78;2.80;;;19.30;99.90;;;;;;5037492;28;20061;-72
2022/08/13 00:16:41;;;;;;;5.07;2.80;;;19.20;99.90;;;;;;5016222;28;20564;-72
2022/08/13 00:19:07;;;;;;;4.57;2.70;;;19.20;99.90;;;;;;5040752;28;20068;-72
2022/08/13 00:21:33;;;;;;;4.85;2.53;;;19.10;99.90;;;;;;5034042;28;20057;-72
2022/08/13 00:23:59;;;;;;;5.55;2.78;;;19.10;99.90;;;;;;5036051;28;20431;-71
2022/08/13 00:26:26;;;;;;;5.45;3.25;;;19.00;99.90;;;;;;5035203;28;20040;-72
2022/08/13 00:28:54;;;;;;;5.13;2.83;;;19.00;99.90;;;;;;5052272;28;20045;-72
2022/08/13 00:31:21;;;;;;;6.05;3.60;;;18.90;99.90;;;;;;5052243;28;20045;-71
2022/08/13 00:33:47;;;;;;;5.05;2.90;;;18.90;99.90;;;;;;5031760;28;20520;-71
2022/08/13 00:36:13;;;;;;;5.25;3.00;;;18.80;99.90;;;;;;5049131;28;20037;-72
2022/08/13 00:38:45;;;;;;;5.95;3.58;;;18.80;99.90;;;;;;5049851;28;20044;-72
2022/08/13 00:41:57;;;;;;;6.20;3.40;;;18.70;99.90;;;;;;5042624;28;20509;-71
2022/08/13 00:43:58;;;;;;;4.90;2.60;;;18.70;99.90;;;;;;5028592;28;20081;-72
2022/08/13 00:46:24;;;;;;;6.03;2.90;;;18.70;99.90;;;;;;5015968;28;20079;-72
2022/08/13 00:48:50;;;;;;;5.93;3.10;;;18.70;99.90;;;;;;5031588;28;20049;-72
2022/08/13 00:51:16;;;;;;;5.18;2.85;;;18.70;99.90;;;;;;5065486;28;20034;-71
2022/08/13 00:53:44;;;;;;;5.95;3.00;;;18.70;99.90;;;;;;5048617;28;20136;-72
2022/08/13 00:56:10;;;;;;;4.80;2.60;;;18.70;99.90;;;;;;5015620;28;20529;-71
2022/08/13 00:58:37;;;;;;;6.25;2.53;;;18.50;99.90;;;;;;5019371;28;20491;-71
2022/08/13 01:01:06;;;;;;;5.45;2.83;;;18.50;99.90;;;;;;5048540;28;20048;-71
2022/08/13 01:03:38;;;;;;;5.07;2.70;;;18.40;99.90;;;;;;5045790;28;20036;-71
2022/08/13 01:06:05;;;;;;;6.22;2.97;;;18.50;99.90;;;;;;5032040;28;20493;-72
2022/08/13 01:08:34;;;;;;;6.25;3.10;;;18.40;99.90;;;;;;5017836;28;20123;-71
2022/08/13 01:11:27;;;;;;;5.97;3.40;;;18.40;99.90;;;;;;5034899;28;20043;-71
2022/08/13 01:13:53;;;;;;;5.32;3.20;;;18.40;99.90;;;;;;5045379;28;20476;-72
2022/08/13 01:16:19;;;;;;;7.40;4.00;;;18.30;99.90;;;;;;5031314;28;20033;-72
2022/08/13 01:18:48;;;;;;;7.35;3.25;;;18.30;99.90;;;;;;5048478;28;20175;-72
2022/08/13 01:21:18;;;;;;;8.27;4.00;;;18.30;99.90;;;;;;5031717;28;20481;-72
2022/08/13 01:23:46;;;;;;;6.65;3.70;;;18.30;99.90;;;;;;5031290;28;20033;-72
2022/08/13 01:26:15;;;;;;;6.50;3.50;;;18.30;99.90;;;;;;5015193;28;20033;-72
2022/08/13 01:28:41;;;;;;;6.78;3.60;;;18.20;99.90;;;;;;5014808;28;20042;-72
2022/08/13 01:31:07;;;;;;;6.65;3.83;;;18.20;99.90;;;;;;5031768;28;20044;-72
2022/08/13 01:33:35;;;;;;;6.95;4.03;;;18.10;99.90;;;;;;5031133;28;20037;-72
2022/08/13 01:36:04;;;;;;;5.57;3.45;;;18.10;99.90;;;;;;5015160;28;20363;-72
2022/08/13 01:38:30;;;;;;;5.38;3.28;;;18.10;99.90;;;;;;5034506;28;20041;-71
2022/08/13 01:40:56;;;;;;;6.65;3.40;;;18.10;99.90;;;;;;5033612;28;20107;-72
2022/08/13 01:43:28;;;;;;;6.75;3.78;;;18.10;99.90;;;;;;5035586;28;20444;-72
2022/08/13 01:45:54;;;;;;;6.50;3.60;;;18.10;99.90;;;;;;5031534;28;20053;-72
2022/08/13 01:51:21;;;;;;;7.45;3.25;;;18.10;99.90;;;;;;5068241;28;20041;-72
2022/08/13 01:53:49;;;;;;;6.55;2.97;;;18.10;99.90;;;;;;5031553;28;20478;-72
2022/08/13 01:56:19;;;;;;;5.82;3.10;;;18.10;99.90;;;;;;5014999;28;20121;-72
2022/08/13 01:58:47;;;;;;;5.85;2.95;;;18.10;99.90;;;;;;5019736;28;20485;-72
2022/08/13 02:01:13;;;;;;;5.45;2.95;;;18.10;99.90;;;;;;5051404;28;20041;-72
2022/08/13 02:03:49;;;;;;;5.53;2.85;;;18.10;99.90;;;;;;5033755;28;20513;-72
2022/08/13 02:06:23;;;;;;;6.60;2.78;;;18.10;99.90;;;;;;5032622;28;20049;-72
2022/08/13 02:08:51;;;;;;;6.40;2.80;;;18.10;99.90;;;;;;5031367;28;20486;-72
2022/08/13 02:11:18;;;;;;;6.68;2.70;;;18.00;99.90;;;;;;5047941;28;20030;-72
2022/08/13 02:13:45;;;;;;;5.10;2.80;;;18.00;99.90;;;;;;5032460;28;20057;-72
2022/08/13 02:16:10;;;;;;;8.02;3.15;;;17.90;99.90;;;;;;5014764;28;20037;-71
2022/08/13 02:18:38;;;;;;;6.45;3.05;;;17.90;99.90;;;;;;5050038;28;20029;-71
2022/08/13 02:21:04;;;;;;;4.60;2.40;;;17.90;99.90;;;;;;5035090;28;20397;-71
2022/08/13 02:23:32;;;;;;;4.85;2.70;;;17.90;99.90;;;;;;5050066;28;20041;-72
2022/08/13 02:25:59;;;;;;;5.22;2.80;;;17.80;99.90;;;;;;5038123;28;20045;-72
2022/08/13 02:28:25;;;;;;;4.57;2.50;;;17.80;99.90;;;;;;5034160;28;20033;-71
2022/08/13 02:30:53;;;;;;;5.22;2.65;;;17.80;99.90;;;;;;5034945;28;20509;-72
2022/08/13 02:33:20;;;;;;;4.40;2.60;;;17.80;99.90;;;;;;5031912;28;20049;-71
2022/08/13 02:35:46;;;;;;;5.20;2.80;;;17.70;99.90;;;;;;5036568;28;20086;-72
2022/08/13 02:38:12;;;;;;;5.07;2.80;;;17.60;99.90;;;;;;5052544;28;20045;-72
2022/08/13 02:43:25;;;;;;;4.90;2.40;;;17.50;99.90;;;;;;5045717;28;20045;-72
2022/08/13 02:45:53;;;;;;;3.80;2.33;;;17.40;99.90;;;;;;5034558;28;20045;-71
2022/08/13 02:48:24;;;;;;;3.67;2.10;;;17.40;99.90;;;;;;5033850;28;20044;-72
2022/08/13 02:50:50;;;;;;;3.83;2.25;;;17.40;99.90;;;;;;5034205;28;20128;-72
2022/08/13 02:53:19;;;;;;;3.65;2.20;;;17.30;99.90;;;;;;5046867;28;20366;-71
2022/08/13 02:55:46;;;;;;;4.63;2.70;;;17.30;99.90;;;;;;5054030;28;20037;-71
2022/08/13 02:58:11;;;;;;;3.90;2.30;;;17.20;99.90;;;;;;5036300;28;20052;-71
2022/08/13 03:00:37;;;;;;;4.25;2.20;;;17.20;99.90;;;;;;5051010;28;20042;-72
2022/08/13 03:03:04;;;;;;;5.40;2.30;;;17.20;99.90;;;;;;5061541;28;20037;-72
2022/08/13 03:05:30;;;;;;;3.58;2.08;;;17.10;99.90;;;;;;5039570;28;20045;-72
2022/08/13 03:07:56;;;;;;;4.50;2.00;;;17.10;99.90;;;;;;5050523;28;20129;-73
2022/08/13 03:10:25;;;;;;;3.10;2.00;;;17.20;99.90;;;;;;5033709;28;20041;-71
2022/08/13 03:12:57;;;;;;;1.90;1.50;;;17.20;99.90;;;;;;5042264;28;20053;-71
2022/08/13 03:15:23;;;;;;;2.35;1.40;;;17.10;99.90;;;;;;5037417;28;20110;-71
2022/08/13 03:17:49;;;;;;;3.20;1.65;;;17.10;99.90;;;;;;5037041;28;20041;-72
2022/08/13 03:20:16;;;;;;;1.30;1.13;;;17.10;99.90;;;;;;5035368;28;20132;-72
2022/08/13 03:22:54;;;;;;;1.60;1.20;;;17.00;99.90;;;;;;5037804;28;20512;-71
2022/08/13 03:25:22;;;;;;;2.00;1.50;;;17.00;99.90;;;;;;5042627;28;20052;-71
2022/08/13 03:27:48;;;;;;;1.90;1.45;;;17.00;99.90;;;;;;5032527;28;20040;-72
2022/08/13 03:30:17;;;;;;;2.83;1.80;;;16.90;99.90;;;;;;5015967;28;20049;-72
2022/08/13 03:32:45;;;;;;;3.75;1.98;;;16.90;99.90;;;;;;5038676;28;20449;-72
2022/08/13 03:35:13;;;;;;;5.25;2.47;;;16.90;99.90;;;;;;5052451;28;20091;-72
2022/08/13 03:37:43;;;;;;;5.15;2.80;;;16.80;99.90;;;;;;5053270;28;20069;-71
2022/08/13 03:40:11;;;;;;;5.13;3.08;;;16.80;99.90;;;;;;5048661;28;20482;-72
2022/08/13 03:42:40;;;;;;;3.67;1.65;;;16.80;99.90;;;;;;5051754;28;20049;-71
2022/08/13 03:45:07;;;;;;;2.22;1.38;;;16.70;99.90;;;;;;5036468;28;20121;-71
2022/08/13 03:47:33;;;;;;;3.17;1.90;;;16.80;99.90;;;;;;5052197;28;20083;-71
2022/08/13 03:50:01;;;;;;;3.03;2.10;;;16.80;99.90;;;;;;5051390;28;20045;-71
2022/08/13 03:52:28;;;;;;;3.97;2.40;;;16.80;99.90;;;;;;5036391;28;20519;-72
2022/08/13 03:54:55;;;;;;;4.57;2.55;;;16.70;99.90;;;;;;5043001;28;20117;-72
2022/08/13 03:57:22;;;;;;;5.18;3.03;;;16.70;99.90;;;;;;5049506;28;20041;-72
2022/08/13 03:59:48;;;;;;;3.78;2.17;;;16.60;99.90;;;;;;5027551;28;20037;-72
2022/08/13 04:02:15;;;;;;;5.03;2.28;;;16.60;99.90;;;;;;5036240;28;20079;-72
2022/08/13 04:04:46;;;;;;;3.88;2.33;;;16.60;99.90;;;;;;5031901;28;20044;-71
2022/08/13 04:07:14;;;;;;;5.70;3.05;;;16.50;99.90;;;;;;5061475;28;20044;-72
2022/08/13 04:09:41;;;;;;;5.60;3.15;;;16.50;99.90;;;;;;5039063;28;20052;-72
2022/08/13 04:12:10;;;;;;;6.45;3.13;;;16.50;99.90;;;;;;5032477;28;20386;-72
2022/08/13 04:14:35;;;;;;;6.10;3.20;;;16.50;99.90;;;;;;5032633;28;20057;-72
2022/08/13 04:17:05;;;;;;;7.90;3.83;;;16.50;99.90;;;;;;5032887;28;20389;-72
2022/08/13 04:19:33;;;;;;;6.45;3.67;;;16.50;99.90;;;;;;5043845;28;20041;-71
2022/08/13 04:21:59;;;;;;;3.92;2.42;;;16.50;99.90;;;;;;5052463;28;20045;-71
2022/08/13 04:24:27;;;;;;;5.65;2.92;;;16.60;99.90;;;;;;5042380;28;20033;-71
2022/08/13 04:26:54;;;;;;;5.85;3.45;;;16.50;99.90;;;;;;5043457;28;20526;-71
2022/08/13 04:29:20;;;;;;;7.57;4.43;;;16.50;99.90;;;;;;5045029;28;20041;-71
2022/08/13 04:31:46;;;;;;;4.45;2.60;;;16.50;99.90;;;;;;5047769;28;20124;-71
2022/08/13 04:34:12;;;;;;;5.40;2.60;;;16.40;99.90;;;;;;5026037;28;20954;-71
2022/08/13 04:36:37;;;;;;;3.30;2.00;;;16.40;99.90;;;;;;5033861;28;20127;-71
2022/08/13 04:39:03;;;;;;;4.22;2.10;;;16.40;99.90;;;;;;5052369;28;20118;-71
2022/08/13 04:41:29;;;;;;;5.43;2.28;;;16.50;99.90;;;;;;5035400;28;20083;-71
2022/08/13 04:43:54;;;;;;;5.15;2.03;;;16.50;99.90;;;;;;5053141;28;20090;-71
2022/08/13 04:46:20;;;;;;;4.22;2.63;;;16.50;99.90;;;;;;5051140;28;20040;-71
2022/08/13 04:48:46;;;;;;;3.90;2.45;;;16.50;99.90;;;;;;5067808;28;20124;-71
2022/08/13 04:51:12;;;;;;;7.15;3.25;;;16.40;99.90;;;;;;5035365;28;20386;-71
2022/08/13 04:53:40;;;;;;;6.13;3.45;;;16.30;99.90;;;;;;5031276;28;20037;-71
2022/08/13 04:56:06;;;;;;;5.70;3.17;;;16.40;99.90;;;;;;5032020;28;20045;-71
2022/08/13 04:58:35;;;;;;;6.53;3.65;;;16.30;99.90;;;;;;5035121;28;20049;-71
2022/08/13 05:01:09;;;;;;;6.57;4.38;;;16.30;99.90;;;;;;5030858;28;20512;-71
2022/08/13 05:03:38;;;;;;;3.38;1.90;;;16.30;99.90;;;;;;5015836;28;20045;-70
2022/08/13 05:06:05;;;;;;;3.58;2.05;;;16.30;99.90;;;;;;5031065;28;20033;-71
2022/08/13 05:08:32;;;;;;;3.65;2.38;;;16.40;99.90;;;;;;5031280;28;20046;-71
2022/08/13 05:10:59;;;;;;;7.18;2.28;;;16.40;99.90;;;;;;5048825;28;20042;-71
2022/08/13 05:13:33;;;;;;;5.25;3.10;;;16.40;99.90;;;;;;5044725;28;20056;-71
2022/08/13 05:16:01;;;;;;;4.30;2.22;;;16.40;99.90;;;;;;5022278;28;20497;-71
2022/08/13 05:18:29;;;;;;;5.43;2.20;;;16.40;99.90;;;;;;5051953;28;20084;-71
2022/08/13 05:20:56;;;;;;;5.07;2.45;;;16.50;99.90;;;;;;5047738;28;20449;-71
2022/08/13 05:23:24;;;;;;;5.38;3.00;;;16.40;99.90;;;;;;5049410;28;20056;-71
2022/08/13 05:25:50;;;;;;;5.32;2.67;;;16.50;99.90;;;;;;5053367;28;20276;-71
2022/08/13 05:28:18;;;;;;;4.32;2.50;;;16.50;99.90;;;;;;5028050;28;20075;-71
2022/08/13 05:30:46;;;;;;;5.10;2.83;;;16.50;99.90;;;;;;5050669;28;20489;-71
2022/08/13 05:33:21;;;;;;;7.07;3.13;;;16.50;99.90;;;;;;5027141;28;20029;-71
2022/08/13 05:35:55;;;;;;;5.75;3.20;;;16.60;99.90;;;;;;5048324;28;20045;-71
2022/08/13 05:38:22;;;;;;;6.43;3.65;;;16.60;99.90;;;;;;5062162;28;20048;-71
2022/08/13 05:40:52;;;;;;;6.82;4.03;;;16.70;99.90;;;;;;5051890;28;20410;-71
2022/08/13 05:43:21;;;;;;;6.82;3.72;;;16.60;99.90;;;;;;5050708;28;20094;-71
2022/08/13 05:45:57;;;;;;;10.02;4.05;;;16.70;99.90;;;;;;5046819;28;20048;-71
2022/08/13 05:48:33;;;;;;;10.32;4.15;;;16.70;99.90;;;;;;5037288;28;20188;-71
2022/08/13 05:51:03;;;;;;;6.88;4.20;;;16.80;99.90;;;;;;5051942;28;20037;-71
2022/08/13 05:53:31;;;;;;;6.60;4.00;;;16.80;99.90;;;;;;5065264;28;20114;-71
2022/08/13 05:55:57;;;;;;;6.20;3.80;;;16.90;99.90;;;;;;5039888;28;20116;-71
2022/08/13 05:58:23;;;;;;;6.55;3.63;;;16.90;99.90;;;;;;5068899;28;20037;-71
2022/08/13 06:03:35;;;;;;;10.13;4.28;;;17.10;99.90;;;;;;5053660;28;20049;-71
2022/08/13 06:06:05;;;;;;;12.57;4.53;;;17.30;99.90;;;;;;5051662;28;20520;-71
2022/08/13 06:08:38;;;;;;;9.43;4.05;;;17.40;99.90;;;;;;5037139;28;20149;-71
2022/08/13 06:11:17;;;;;;;7.05;4.25;;;17.50;99.90;;;;;;5046604;28;20397;-71
2022/08/13 06:13:51;;;;;;;22.45;5.47;;;17.70;99.90;;;;;;5053331;28;20505;-71
2022/08/13 06:16:21;;;;;;;7.80;4.10;;;17.90;99.90;;;;;;5071635;28;20036;-71
2022/08/13 06:18:48;;;;;;;6.97;3.67;;;18.00;99.90;;;;;;5031918;28;20121;-71
2022/08/13 06:21:17;;;;;;;7.82;3.65;;;18.20;99.90;;;;;;5054898;28;20128;-71
2022/08/13 06:23:45;;;;;;;10.90;4.32;;;18.30;99.90;;;;;;5032590;28;20132;-71
2022/08/13 06:26:14;;;;;;;8.15;4.00;;;18.50;99.90;;;;;;5032177;28;20558;-71
2022/08/13 06:28:40;;;;;;;8.95;4.15;;;18.60;99.90;;;;;;5048348;28;20441;-72
2022/08/13 06:31:09;;;;;;;5.97;3.63;;;18.70;99.90;;;;;;5047089;28;20072;-71
2022/08/13 06:33:36;;;;;;;10.20;4.13;;;18.90;99.90;;;;;;5021842;28;20490;-70
2022/08/13 06:36:07;;;;;;;8.45;4.38;;;19.10;99.90;;;;;;5069134;28;20036;-71
2022/08/13 06:38:45;;;;;;;9.65;4.32;;;19.30;99.90;;;;;;5047644;28;20045;-71
2022/08/13 06:41:12;;;;;;;6.88;3.97;;;19.50;99.90;;;;;;5058812;28;20489;-71
2022/08/13 06:43:41;;;;;;;7.53;3.70;;;19.60;99.90;;;;;;5052774;28;20086;-71
2022/08/13 06:46:08;;;;;;;8.38;3.67;;;19.70;99.90;;;;;;5050384;28;20037;-71
2022/08/13 06:48:35;;;;;;;7.18;3.35;;;19.90;99.90;;;;;;5054083;28;20036;-71
2022/08/13 06:51:06;;;;;;;22.70;4.40;;;20.00;99.90;;;;;;5032217;28;20075;-71
2022/08/13 06:53:32;;;;;;;6.13;3.17;;;20.10;99.90;;;;;;5018220;28;20033;-71
2022/08/13 06:55:58;;;;;;;8.23;3.30;;;20.20;99.90;;;;;;5049883;28;20132;-71
2022/08/13 06:58:28;;;;;;;7.32;3.33;;;20.40;99.90;;;;;;5020574;28;20098;-71
2022/08/13 07:00:55;;;;;;;7.13;3.10;;;20.60;99.90;;;;;;5054090;28;20090;-71
2022/08/13 07:03:29;;;;;;;7.72;3.28;;;20.80;99.90;;;;;;5048508;28;20116;-71
2022/08/13 07:05:56;;;;;;;8.27;3.35;;;20.90;99.90;;;;;;5052974;28;20041;-71
2022/08/13 07:08:24;;;;;;;5.32;3.05;;;21.00;99.90;;;;;;5048455;28;20045;-71
2022/08/13 07:11:21;;;;;;;5.95;3.33;;;21.10;99.90;;;;;;5033279;28;20090;-71
2022/08/13 07:13:45;;;;;;;6.43;2.92;;;21.30;99.90;;;;;;5050922;28;20094;-71
2022/08/13 07:16:16;;;;;;;6.97;2.90;;;21.50;99.90;;;;;;5033211;28;20033;-71
2022/08/13 07:18:42;;;;;;;8.00;2.70;;;21.60;99.90;;;;;;5033742;28;20048;-71
2022/08/13 07:21:10;;;;;;;7.35;2.80;;;21.70;99.90;;;;;;5042572;28;20076;-70
2022/08/13 07:23:37;;;;;;;4.93;2.80;;;21.90;99.90;;;;;;5052829;28;20041;-72
2022/08/13 07:26:04;;;;;;;7.40;2.90;;;21.90;99.90;;;;;;5051860;28;20044;-78
2022/08/13 07:28:32;;;;;;;7.78;3.10;;;22.00;99.90;;;;;;5032010;28;20043;-78
2022/08/13 07:30:59;;;;;;;7.45;2.80;;;22.20;99.90;;;;;;5050398;28;20045;-78
2022/08/13 07:33:25;;;;;;;5.57;2.83;;;22.40;99.90;;;;;;5073001;28;20050;-77
2022/08/13 07:35:51;;;;;;;5.30;2.47;;;22.50;99.90;;;;;;5069036;28;20501;-79
2022/08/13 07:38:17;;;;;;;6.57;2.55;;;22.70;99.90;;;;;;5039714;28;20037;-70
2022/08/13 07:40:48;;;;;;;6.20;2.28;;;22.90;99.90;;;;;;5049483;28;20049;-69
2022/08/13 07:43:16;;;;;;;6.40;2.10;;;22.90;99.90;;;;;;5068550;28;20551;-69
2022/08/13 07:45:42;;;;;;;3.92;2.00;;;23.10;99.70;;;;;;5037455;28;20383;-69
2022/08/13 07:48:08;;;;;;;3.72;2.17;;;23.20;99.30;;;;;;5050054;28;20100;-69
2022/08/13 07:50:35;;;;;;;5.60;2.25;;;23.20;99.10;;;;;;5065244;28;20033;-70
2022/08/13 07:53:00;;;;;;;8.57;2.40;;;23.30;98.60;;;;;;5068785;28;20116;-70
2022/08/13 07:55:29;;;;;;;6.32;2.22;;;23.40;98.40;;;;;;5044385;28;20121;-68
2022/08/13 07:57:55;;;;;;;4.30;2.00;;;23.50;98.70;;;;;;5028209;28;20050;-69
2022/08/13 08:00:25;;;;;;;9.60;2.47;;;23.70;98.80;;;;;;5043190;28;20392;-69
2022/08/13 08:03:03;;;;;;;6.28;1.92;;;23.80;96.80;;;;;;5031068;28;20041;-70
2022/08/13 08:05:34;;;;;;;5.72;2.33;;;23.90;97.90;;;;;;5048247;28;20040;-70
2022/08/13 08:08:00;;;;;;;3.10;2.00;;;24.00;97.40;;;;;;5019358;28;20041;-70
2022/08/13 08:10:26;;;;;;;4.35;2.10;;;24.00;97.50;;;;;;5041307;28;20041;-69
2022/08/13 08:13:00;;;;;;;3.97;1.92;;;24.20;97.00;;;;;;5050639;28;20405;-70
2022/08/13 08:15:27;;;;;;;4.28;1.90;;;24.20;96.60;;;;;;5067901;28;20550;-69
2022/08/13 08:17:57;;;;;;;4.75;1.90;;;24.30;94.60;;;;;;5033385;28;20048;-70
2022/08/13 08:20:23;;;;;;;4.47;2.00;;;24.50;96.40;;;;;;5016114;28;20041;-69
2022/08/13 08:22:49;;;;;;;5.65;2.10;;;24.50;96.10;;;;;;5048751;28;20097;-70
2022/08/13 08:25:17;;;;;;;3.47;2.03;;;24.60;96.10;;;;;;5034128;28;20509;-70
2022/08/13 08:27:44;;;;;;;4.82;1.90;;;24.80;95.40;;;;;;5036065;28;20047;-70
2022/08/13 08:30:15;;;;;;;7.90;2.20;;;24.90;95.30;;;;;;5051989;28;20033;-70
2022/08/13 08:32:42;;;;;;;5.75;2.05;;;25.00;94.60;;;;;;5052245;28;20033;-70
2022/08/13 08:35:08;;;;;;;4.53;2.20;;;25.00;94.70;;;;;;5052563;28;20044;-70
2022/08/13 08:43:10;;;;;;;4.68;1.60;;;25.30;90.50;;;;;;5050442;28;20049;-70
2022/08/13 08:45:36;;;;;;;4.80;2.03;;;25.40;92.40;;;;;;5068923;28;20112;-70
2022/08/13 08:48:02;;;;;;;4.13;1.80;;;25.50;91.90;;;;;;5028360;28;20049;-70
2022/08/13 08:50:28;;;;;;;6.85;2.10;;;25.70;90.10;;;;;;5081418;28;20040;-78
2022/08/13 08:55:42;;;;;;;4.78;2.28;;;26.00;85.30;;;;;;5048701;28;20045;-78
2022/08/13 08:58:11;;;;;;;3.17;1.80;;;26.00;88.80;;;;;;5016108;28;20505;-78
2022/08/13 09:00:39;;;;;;;4.13;1.70;;;26.10;86.60;;;;;;5065643;28;20066;-78
2022/08/13 09:03:05;;;;;;;16.27;2.63;;;26.20;86.10;;;;;;5071966;28;20089;-79
2022/08/13 09:05:31;;;;;;;2.25;1.58;;;26.20;85.10;;;;;;5032182;28;20403;-78
2022/08/13 09:08:01;;;;;;;12.20;2.03;;;26.30;86.30;;;;;;5015378;28;20038;-78
2022/08/13 09:10:26;;;;;;;5.32;2.00;;;26.50;87.70;;;;;;5017332;28;20099;-78
2022/08/13 09:12:52;;;;;;;7.30;1.88;;;26.40;79.90;;;;;;5015317;28;20077;-71
2022/08/13 09:15:22;;;;;;;3.30;1.65;;;26.60;81.60;;;;;;5043198;28;20079;-70
2022/08/13 09:17:53;;;;;;;8.60;2.13;;;26.70;80.40;;;;;;5049582;28;20033;-70
2022/08/13 09:20:22;;;;;;;3.97;2.00;;;26.80;78.20;;;;;;5058671;28;20044;-70
2022/08/13 09:23:00;;;;;;;4.80;1.65;;;26.90;74.90;;;;;;5070095;28;20094;-70
2022/08/13 09:25:26;;;;;;;5.63;2.05;;;26.90;74.90;;;;;;5051777;28;20045;-70
2022/08/13 09:27:53;;;;;;;4.88;1.90;;;27.00;72.60;;;;;;5054646;28;20087;-70
2022/08/13 09:30:19;;;;;;;4.32;1.60;;;27.00;72.90;;;;;;5033072;28;20042;-71
2022/08/13 09:32:46;;;;;;;2.55;1.60;;;27.20;68.70;;;;;;5035850;28;20120;-68
2022/08/13 09:35:12;;;;;;;2.78;1.80;;;27.20;71.60;;;;;;5035807;28;20083;-67
2022/08/13 09:37:39;;;;;;;7.05;1.83;;;27.30;67.70;;;;;;5066607;28;20100;-68
2022/08/13 09:40:08;;;;;;;7.82;2.10;;;27.40;66.80;;;;;;5055492;28;20113;-68
2022/08/13 09:42:39;;;;;;;3.92;1.85;;;27.30;68.40;;;;;;5046017;28;20049;-68
2022/08/13 09:45:06;;;;;;;3.03;1.50;;;27.40;69.00;;;;;;5088923;28;20049;-68
2022/08/13 09:47:32;;;;;;;6.03;1.95;;;27.60;67.00;;;;;;5071085;28;20045;-68
2022/08/13 09:49:57;;;;;;;7.40;1.80;;;27.60;67.20;;;;;;5049436;28;20128;-69
2022/08/13 09:52:23;;;;;;;4.57;2.00;;;27.70;66.80;;;;;;5035470;28;20120;-68
2022/08/13 09:54:50;;;;;;;5.90;1.63;;;27.70;65.30;;;;;;5068591;28;20033;-68
2022/08/13 09:57:20;;;;;;;4.43;1.70;;;27.80;65.30;;;;;;5050845;28;20044;-68
2022/08/13 09:59:47;;;;;;;6.70;1.90;;;27.90;65.80;;;;;;5067803;28;20048;-68
2022/08/13 10:02:13;;;;;;;3.08;1.70;;;28.10;62.90;;;;;;5047073;28;20052;-68
2022/08/13 10:04:41;;;;;;;6.20;1.80;;;28.00;63.90;;;;;;5042463;28;20116;-68
2022/08/13 10:07:08;;;;;;;2.75;1.67;;;28.10;63.30;;;;;;5045797;28;20048;-69
2022/08/13 10:09:35;;;;;;;4.47;2.03;;;28.30;62.50;;;;;;5038292;28;20517;-68
2022/08/13 10:12:02;;;;;;;5.60;1.70;;;28.30;61.50;;;;;;5061668;28;20450;-68
2022/08/13 10:14:27;;;;;;;3.70;1.77;;;28.40;60.00;;;;;;5053825;28;20413;-68
2022/08/13 10:16:53;;;;;;;3.67;1.73;;;28.40;60.00;;;;;;5053121;28;20041;-68
2022/08/13 10:19:19;;;;;;;4.78;1.90;;;28.50;60.20;;;;;;5033384;28;20075;-69
2022/08/13 10:21:45;;;;;;;11.73;2.30;;;28.50;58.80;;;;;;5063961;28;20107;-68
2022/08/13 10:24:10;;;;;;;4.95;1.80;;;28.60;57.00;;;;;;5045998;28;20485;-68
2022/08/13 10:26:40;;;;;;;5.95;1.88;;;28.70;58.20;;;;;;5047654;28;20144;-68
2022/08/13 10:29:10;;;;;;;7.10;1.80;;;28.70;59.00;;;;;;5055302;28;20045;-68
2022/08/13 10:31:36;;;;;;;5.03;1.83;;;28.80;60.20;;;;;;5062037;28;20043;-68
2022/08/13 10:34:03;;;;;;;6.18;1.90;;;28.90;58.90;;;;;;5043836;28;20045;-68
2022/08/13 10:36:33;;;;;;;4.43;1.75;;;28.90;60.00;;;;;;5041427;28;20553;-68
2022/08/13 10:38:59;;;;;;;6.35;1.95;;;29.00;55.80;;;;;;5034131;28;20037;-68
2022/08/13 10:41:24;;;;;;;2.80;1.83;;;29.00;55.50;;;;;;5040387;28;20075;-68
2022/08/13 10:43:51;;;;;;;3.47;1.75;;;28.80;56.00;;;;;;5040918;28;20081;-69
2022/08/13 10:46:17;;;;;;;8.10;2.00;;;28.80;56.40;;;;;;5067430;28;20439;-68
2022/08/13 10:48:44;;;;;;;4.15;1.60;;;28.90;55.90;;;;;;5024002;28;20405;-68
2022/08/13 10:51:10;;;;;;;4.30;1.85;;;28.90;55.90;;;;;;5045317;28;20045;-68
2022/08/13 10:56:21;;;;;;;6.10;1.60;;;29.00;54.20;;;;;;5061628;28;20046;-68
2022/08/13 10:58:47;;;;;;;4.65;1.83;;;29.00;54.20;;;;;;5021774;28;20041;-68
2022/08/13 11:01:12;;;;;;;4.32;2.13;;;29.10;53.80;;;;;;5055790;28;20033;-69
2022/08/13 11:03:38;;;;;;;4.80;1.80;;;29.20;56.50;;;;;;5053956;28;20041;-68
2022/08/13 11:06:06;;;;;;;4.40;1.73;;;29.20;55.00;;;;;;5053807;28;20039;-68
2022/08/13 11:08:39;;;;;;;3.58;1.75;;;29.30;57.00;;;;;;5031280;28;20038;-68
2022/08/13 11:11:07;;;;;;;3.13;1.75;;;29.30;52.20;;;;;;5034371;28;20071;-69
2022/08/13 11:13:33;;;;;;;8.18;1.83;;;29.20;53.00;;;;;;5053489;28;20135;-68
2022/08/13 11:16:00;;;;;;;2.33;1.55;;;29.20;54.10;;;;;;5045228;28;20591;-68
2022/08/13 11:18:28;;;;;;;3.47;1.55;;;29.20;55.60;;;;;;5033074;28;20072;-69
2022/08/13 11:21:02;;;;;;;2.58;1.65;;;29.30;53.30;;;;;;5045984;28;20053;-68
2022/08/13 11:23:29;;;;;;;4.22;1.65;;;29.30;53.90;;;;;;5050098;28;20038;-69
2022/08/13 11:25:55;;;;;;;5.38;1.73;;;29.30;53.60;;;;;;5024632;28;20045;-69
2022/08/13 11:28:21;;;;;;;4.78;1.80;;;29.30;53.00;;;;;;5043421;28;20052;-68
2022/08/13 11:30:48;;;;;;;3.63;1.60;;;29.20;53.50;;;;;;5040783;28;20037;-69
2022/08/13 11:33:13;;;;;;;4.38;1.60;;;29.40;51.80;;;;;;5023798;28;20055;-68
2022/08/13 11:35:43;;;;;;;3.28;1.75;;;29.40;51.20;;;;;;5016654;28;20156;-68
2022/08/13 11:38:10;;;;;;;2.80;1.88;;;29.40;52.70;;;;;;5039725;28;20056;-68
2022/08/13 11:40:38;;;;;;;3.63;1.70;;;29.40;51.00;;;;;;5066442;28;20416;-67
2022/08/13 11:43:03;;;;;;;3.15;1.80;;;29.40;51.20;;;;;;5051929;28;20557;-68
2022/08/13 11:45:29;;;;;;;2.10;1.50;;;29.40;51.20;;;;;;5046770;28;20037;-68
2022/08/13 11:47:55;;;;;;;4.40;1.88;;;29.50;49.50;;;;;;5069008;28;20094;-68
2022/08/13 11:50:21;;;;;;;4.97;1.77;;;29.50;51.60;;;;;;5029561;28;20071;-68
2022/08/13 11:52:46;;;;;;;4.93;1.67;;;29.50;51.10;;;;;;5023066;28;20112;-68
2022/08/13 11:55:12;;;;;;;3.78;1.80;;;29.50;51.80;;;;;;5036046;28;20044;-68
2022/08/13 11:57:37;;;;;;;4.30;1.90;;;29.50;49.70;;;;;;5035092;28;20038;-68
2022/08/13 12:00:05;;;;;;;4.70;1.70;;;29.50;49.70;;;;;;5053025;28;20071;-68
2022/08/13 12:02:31;;;;;;;3.40;1.67;;;29.40;47.80;;;;;;5052471;28;20033;-68
2022/08/13 12:04:56;;;;;;;11.63;2.20;;;29.30;49.60;;;;;;5034619;28;20044;-68
2022/08/13 12:07:23;;;;;;;4.93;1.70;;;29.20;50.00;;;;;;5038906;28;20402;-68
2022/08/13 12:09:49;;;;;;;2.88;1.80;;;29.10;50.50;;;;;;5027202;28;20397;-68
2022/08/13 12:12:15;;;;;;;3.70;1.92;;;28.90;49.00;;;;;;5032721;28;20034;-67
2022/08/13 12:14:40;;;;;;;3.35;1.65;;;28.90;50.40;;;;;;5043785;28;20057;-68
2022/08/13 12:17:06;;;;;;;3.55;1.65;;;29.00;52.20;;;;;;5052409;28;20041;-68
2022/08/13 12:19:32;;;;;;;2.83;1.95;;;29.10;52.30;;;;;;5050763;28;20041;-68
2022/08/13 12:21:59;;;;;;;5.38;1.88;;;29.20;51.90;;;;;;5048710;28;20123;-68
2022/08/13 12:24:25;;;;;;;4.03;1.80;;;29.30;51.40;;;;;;5040334;28;20038;-68
2022/08/13 12:26:51;;;;;;;3.83;1.75;;;29.30;50.00;;;;;;5041062;28;20128;-69
2022/08/13 12:29:17;;;;;;;3.30;1.70;;;29.30;51.20;;;;;;5034572;28;20401;-69
2022/08/13 12:31:42;;;;;;;3.53;1.80;;;29.30;50.60;;;;;;5036202;28;20045;-68
2022/08/13 12:34:08;;;;;;;3.63;1.80;;;29.30;49.10;;;;;;5050030;28;20107;-68
2022/08/13 12:36:33;;;;;;;3.03;1.73;;;29.40;49.20;;;;;;5040703;28;20036;-68
2022/08/13 12:38:59;;;;;;;7.20;2.22;;;29.40;49.60;;;;;;5050117;28;20513;-68
2022/08/13 12:41:24;;;;;;;3.00;1.80;;;29.50;51.00;;;;;;5046849;28;20041;-68
2022/08/13 12:43:50;;;;;;;4.97;1.80;;;29.40;50.60;;;;;;5026102;28;20045;-67
2022/08/13 12:46:15;;;;;;;4.47;2.22;;;29.40;51.00;;;;;;5031894;28;20041;-69
2022/08/13 12:48:41;;;;;;;3.42;1.90;;;29.40;51.70;;;;;;5069553;28;20091;-68
2022/08/13 12:51:07;;;;;;;4.57;2.13;;;29.40;49.00;;;;;;5032971;28;20080;-67
2022/08/13 12:53:32;;;;;;;2.92;2.00;;;29.40;50.80;;;;;;5035047;28;20048;-68
2022/08/13 12:55:58;;;;;;;2.90;1.70;;;29.40;49.10;;;;;;5036452;28;20490;-68
2022/08/13 12:58:26;;;;;;;3.67;1.90;;;29.40;51.20;;;;;;5043752;28;20037;-68
2022/08/13 13:00:54;;;;;;;5.43;2.15;;;29.50;50.30;;;;;;5032819;28;20439;-67
2022/08/13 13:03:20;;;;;;;3.17;1.95;;;29.40;49.20;;;;;;5033525;28;20163;-68
2022/08/13 13:05:48;;;;;;;6.60;2.08;;;29.50;50.30;;;;;;5027066;28;20073;-68
2022/08/13 13:08:28;;;;;;;12.73;2.83;;;29.50;50.20;;;;;;5030811;28;20045;-68
2022/08/13 13:10:56;;;;;;;7.72;2.08;;;29.50;52.10;;;;;;5047854;28;20205;-67
2022/08/13 13:13:23;;;;;;;4.70;2.20;;;29.50;50.00;;;;;;5018983;28;20057;-68